createdAt,value
2022-08-06T00:00:07.727Z,1.83
2022-08-06T00:02:37.337Z,2.05
2022-08-06T00:05:08.083Z,1.95
2022-08-06T00:07:47.865Z,1.73
2022-08-06T00:10:18.777Z,3.25
2022-08-06T00:12:48.824Z,2.38
2022-08-06T00:16:06.322Z,2.58
2022-08-06T00:18:08.920Z,2.70
2022-08-06T00:20:42.808Z,1.70
2022-08-06T00:23:16.608Z,2.55
2022-08-06T00:25:51.968Z,1.70
2022-08-06T00:28:30.350Z,3.35
2022-08-06T00:31:01.027Z,1.85
2022-08-06T00:33:44.516Z,2.65
2022-08-06T00:36:28.252Z,2.08
2022-08-06T00:38:59.563Z,1.70
2022-08-06T00:41:30.704Z,2.35
2022-08-06T00:44:15.112Z,1.80
2022-08-06T00:46:47.970Z,1.77
2022-08-06T00:49:48.113Z,3.22
2022-08-06T00:52:08.469Z,1.95
2022-08-06T00:54:36.901Z,3.15
2022-08-06T00:57:11.945Z,2.13
2022-08-06T00:59:43.009Z,1.52
2022-08-06T01:02:11.891Z,1.70
2022-08-06T01:04:43.303Z,4.20
2022-08-06T01:07:13.103Z,2.15
2022-08-06T01:09:45.932Z,2.35
2022-08-06T01:12:33.674Z,2.75
2022-08-06T01:15:15.486Z,1.88
2022-08-06T01:17:58.060Z,1.65
2022-08-06T01:21:57.984Z,1.98
2022-08-06T01:23:49.531Z,1.95
2022-08-06T01:26:44.486Z,2.20
2022-08-06T01:29:22.874Z,2.03
2022-08-06T01:32:02.199Z,3.60
2022-08-06T01:34:39.059Z,2.90
2022-08-06T01:37:14.334Z,2.03
2022-08-06T01:39:53.791Z,2.95
2022-08-06T01:42:34.619Z,2.10
2022-08-06T01:45:07.482Z,2.35
2022-08-06T01:47:53.849Z,3.10
2022-08-06T01:50:27.858Z,3.78
2022-08-06T01:52:59.785Z,2.95
2022-08-06T01:55:56.104Z,1.90
2022-08-06T01:58:30.443Z,2.10
2022-08-06T02:01:03.712Z,2.15
2022-08-06T02:03:49.569Z,2.38
2022-08-06T02:06:29.600Z,2.00
2022-08-06T02:09:21.828Z,2.22
2022-08-06T02:12:02.818Z,2.08
2022-08-06T02:14:37.520Z,3.92
2022-08-06T02:17:13.646Z,38.95
2022-08-06T02:20:03.988Z,66.88
2022-08-06T02:22:42.601Z,41.33
2022-08-06T02:25:22.400Z,16.95
2022-08-06T02:27:59.334Z,7.05
2022-08-06T02:30:36.239Z,2.17
2022-08-06T02:33:08.623Z,2.65
2022-08-06T02:35:44.981Z,2.60
2022-08-06T02:38:23.626Z,2.35
2022-08-06T02:41:01.482Z,2.47
2022-08-06T02:43:36.579Z,2.53
2022-08-06T02:46:12.379Z,1.90
2022-08-06T02:48:48.691Z,2.50
2022-08-06T02:51:43.476Z,2.50
2022-08-06T02:54:17.749Z,1.70
2022-08-06T02:56:49.572Z,1.85
2022-08-06T02:59:26.192Z,1.92
2022-08-06T03:02:00.295Z,2.05
2022-08-06T03:04:38.582Z,2.70
2022-08-06T03:07:26.499Z,3.40
2022-08-06T03:09:57.967Z,3.28
2022-08-06T03:12:30.389Z,2.35
2022-08-06T03:15:07.152Z,2.35
2022-08-06T03:17:41.627Z,2.33
2022-08-06T03:20:17.189Z,2.28
2022-08-06T03:22:48.270Z,2.75
2022-08-06T03:25:21.182Z,3.05
2022-08-06T03:27:57.447Z,2.58
2022-08-06T03:30:33.777Z,3.33
2022-08-06T03:33:08.073Z,2.20
2022-08-06T03:35:56.339Z,2.10
2022-08-06T03:38:28.803Z,2.10
2022-08-06T03:41:00.710Z,2.17
2022-08-06T03:43:56.036Z,3.22
2022-08-06T03:46:26.641Z,3.47
2022-08-06T03:48:56.292Z,1.90
2022-08-06T03:51:50.830Z,2.40
2022-08-06T03:54:28.050Z,2.42
2022-08-06T03:57:08.479Z,2.40
2022-08-06T03:59:43.830Z,2.65
2022-08-06T04:02:36.945Z,2.58
2022-08-06T04:05:22.882Z,2.45
2022-08-06T04:07:57.908Z,3.08
2022-08-06T04:10:33.348Z,2.85
2022-08-06T04:13:08.457Z,2.22
2022-08-06T04:15:56.468Z,2.20
2022-08-06T04:18:28.137Z,8.50
2022-08-06T04:21:19.351Z,6.45
2022-08-06T04:23:50.798Z,2.33
2022-08-06T04:26:24.998Z,4.13
2022-08-06T04:28:57.359Z,2.80
2022-08-06T04:32:03.138Z,2.97
2022-08-06T04:34:27.479Z,3.55
2022-08-06T04:36:57.969Z,2.33
2022-08-06T04:39:37.723Z,3.70
2022-08-06T04:42:18.089Z,2.97
2022-08-06T04:44:59.428Z,2.47
2022-08-06T04:47:41.649Z,3.72
2022-08-06T04:50:17.868Z,2.75
2022-08-06T04:52:52.412Z,3.03
2022-08-06T04:55:33.593Z,3.03
2022-08-06T04:58:11.285Z,2.20
2022-08-06T05:01:04.021Z,2.25
2022-08-06T05:04:08.977Z,4.05
2022-08-06T05:06:37.811Z,4.68
2022-08-06T05:09:22.787Z,2.85
2022-08-06T05:12:01.911Z,2.30
2022-08-06T05:14:43.151Z,2.30
2022-08-06T05:17:15.686Z,2.92
2022-08-06T05:19:50.084Z,2.58
2022-08-06T05:22:53.896Z,2.35
2022-08-06T05:25:17.847Z,2.47
2022-08-06T05:28:03.435Z,2.95
2022-08-06T05:30:45.657Z,2.28
2022-08-06T05:33:24.117Z,2.80
2022-08-06T05:36:01.913Z,2.42
2022-08-06T05:38:36.913Z,3.33
2022-08-06T05:41:08.051Z,4.05
2022-08-06T05:43:59.028Z,2.92
2022-08-06T05:46:29.449Z,3.92
2022-08-06T05:49:12.265Z,2.20
2022-08-06T05:51:57.724Z,2.38
2022-08-06T05:54:33.481Z,4.07
2022-08-06T05:57:06.763Z,2.00
2022-08-06T05:59:57.833Z,3.70
2022-08-06T06:02:30.695Z,2.08
2022-08-06T06:06:07.562Z,2.80
2022-08-06T06:08:09.793Z,4.57
2022-08-06T06:10:43.872Z,4.55
2022-08-06T06:13:25.510Z,2.42
2022-08-06T06:16:22.293Z,2.05
2022-08-06T06:19:15.556Z,2.30
2022-08-06T06:21:53.633Z,3.42
2022-08-06T06:24:32.743Z,2.80
2022-08-06T06:27:36.222Z,3.38
2022-08-06T06:30:06.083Z,2.45
2022-08-06T06:32:50.163Z,2.45
2022-08-06T06:35:35.890Z,3.72
2022-08-06T06:38:19.219Z,3.47
2022-08-06T06:41:03.087Z,2.30
2022-08-06T06:43:44.651Z,3.22
2022-08-06T06:46:38.901Z,2.38
2022-08-06T06:50:00.419Z,2.72
2022-08-06T06:52:12.988Z,2.13
2022-08-06T06:54:59.594Z,2.83
2022-08-06T06:57:42.789Z,4.97
2022-08-06T07:00:45.504Z,3.60
2022-08-06T07:03:02.787Z,3.35
2022-08-06T07:06:04.485Z,2.70
2022-08-06T07:08:31.803Z,3.42
2022-08-06T07:11:08.589Z,2.78
2022-08-06T07:13:47.653Z,2.63
2022-08-06T07:16:34.341Z,2.40
2022-08-06T07:19:05.443Z,2.50
2022-08-06T07:21:36.232Z,3.15
2022-08-06T07:24:36.954Z,3.35
2022-08-06T07:26:57.872Z,3.13
2022-08-06T07:29:59.210Z,3.47
2022-08-06T07:32:30.596Z,3.65
2022-08-06T07:35:11.920Z,3.30
2022-08-06T07:37:46.762Z,2.30
2022-08-06T07:40:23.410Z,3.90
2022-08-06T07:42:56.039Z,2.67
2022-08-06T07:45:32.326Z,2.45
2022-08-06T07:48:16.705Z,4.25
2022-08-06T07:50:49.298Z,3.53
2022-08-06T07:53:21.193Z,3.58
2022-08-06T07:56:11.918Z,3.20
2022-08-06T07:58:45.994Z,4.47
2022-08-06T08:01:17.091Z,2.63
2022-08-06T08:04:34.065Z,2.35
2022-08-06T08:06:54.768Z,3.92
2022-08-06T08:09:29.375Z,2.65
2022-08-06T08:12:33.975Z,5.50
2022-08-06T08:15:17.984Z,3.75
2022-08-06T08:17:57.815Z,4.97
2022-08-06T08:20:33.728Z,3.20
2022-08-06T08:23:05.216Z,3.33
2022-08-06T08:25:42.116Z,5.32
2022-08-06T08:28:16.732Z,3.28
2022-08-06T08:30:48.033Z,5.70
2022-08-06T08:33:19.374Z,4.22
2022-08-06T08:35:50.122Z,4.20
2022-08-06T08:38:29.470Z,3.65
2022-08-06T08:41:02.938Z,2.85
2022-08-06T08:43:59.534Z,2.70
2022-08-06T08:46:30.761Z,2.78
2022-08-06T08:49:03.241Z,4.65
2022-08-06T08:51:42.213Z,3.42
2022-08-06T08:54:16.619Z,3.13
2022-08-06T08:57:06.269Z,2.65
2022-08-06T08:59:58.068Z,2.60
2022-08-06T09:02:28.362Z,3.90
2022-08-06T09:04:58.585Z,3.58
2022-08-06T09:07:35.906Z,2.40
2022-08-06T09:10:09.206Z,2.50
2022-08-06T09:12:45.222Z,3.90
2022-08-06T09:15:17.712Z,2.85
2022-08-06T09:18:25.889Z,3.08
2022-08-06T09:20:45.640Z,3.22
2022-08-06T09:23:19.119Z,3.53
2022-08-06T09:25:51.815Z,3.95
2022-08-06T09:28:35.820Z,4.00
2022-08-06T09:31:10.622Z,2.95
2022-08-06T09:34:18.843Z,2.92
2022-08-06T09:36:48.487Z,2.95
2022-08-06T09:39:23.273Z,2.50
2022-08-06T09:41:54.044Z,3.72
2022-08-06T09:44:37.040Z,7.75
2022-08-06T09:47:16.505Z,2.88
2022-08-06T09:50:00.218Z,2.92
2022-08-06T09:52:29.505Z,3.00
2022-08-06T09:54:57.963Z,4.00
2022-08-06T09:57:43.959Z,3.67
2022-08-06T10:00:26.963Z,4.72
2022-08-06T10:02:59.045Z,4.78
2022-08-06T10:05:50.385Z,3.92
2022-08-06T10:08:22.645Z,3.85
2022-08-06T10:10:52.420Z,3.00
2022-08-06T10:13:24.669Z,5.05
2022-08-06T10:16:00.598Z,4.30
2022-08-06T10:18:55.571Z,4.22
2022-08-06T10:21:33.263Z,4.43
2022-08-06T10:24:11.953Z,3.28
2022-08-06T10:26:43.342Z,3.60
2022-08-06T10:29:14.661Z,3.03
2022-08-06T10:31:52.701Z,2.88
2022-08-06T10:34:29.714Z,3.67
2022-08-06T10:37:07.782Z,4.22
2022-08-06T10:40:07.985Z,3.97
2022-08-06T10:42:40.534Z,4.50
2022-08-06T10:45:13.654Z,2.50
2022-08-06T10:49:00.910Z,4.13
2022-08-06T10:50:41.717Z,2.88
2022-08-06T10:53:20.794Z,4.88
2022-08-06T10:56:08.948Z,2.20
2022-08-06T10:58:39.089Z,2.33
2022-08-06T11:01:14.044Z,2.92
2022-08-06T11:04:14.117Z,2.78
2022-08-06T11:07:13.391Z,2.92
2022-08-06T11:10:27.080Z,4.40
2022-08-06T11:13:01.263Z,3.40
2022-08-06T11:15:37.634Z,2.50
2022-08-06T11:18:12.071Z,3.05
2022-08-06T11:20:47.333Z,2.28
2022-08-06T11:23:58.333Z,2.50
2022-08-06T11:26:36.434Z,2.00
2022-08-06T11:29:08.762Z,2.10
2022-08-06T11:31:43.440Z,2.20
2022-08-06T11:34:50.954Z,4.35
2022-08-06T11:38:03.711Z,3.45
2022-08-06T11:40:55.416Z,6.10
2022-08-06T11:44:03.227Z,3.65
2022-08-06T11:46:35.977Z,2.65
2022-08-06T11:49:18.182Z,2.15
2022-08-06T11:51:59.340Z,2.10
2022-08-06T11:54:38.520Z,2.47
2022-08-06T11:57:32.636Z,2.10
2022-08-06T12:00:16.171Z,2.30
2022-08-06T12:03:02.454Z,2.25
2022-08-06T12:05:57.077Z,1.70
2022-08-06T12:08:41.823Z,2.38
2022-08-06T12:11:34.389Z,2.10
2022-08-06T12:14:33.835Z,2.20
2022-08-06T12:16:58.615Z,2.28
2022-08-06T12:19:28.240Z,4.03
2022-08-06T12:21:57.687Z,1.90
2022-08-06T12:24:45.386Z,2.20
2022-08-06T12:27:25.100Z,2.45
2022-08-06T12:30:02.379Z,3.60
2022-08-06T12:32:31.854Z,7.07
2022-08-06T12:35:01.963Z,2.10
2022-08-06T12:37:41.588Z,2.28
2022-08-06T12:40:34.553Z,4.40
2022-08-06T12:43:14.948Z,2.38
2022-08-06T12:46:07.310Z,2.25
2022-08-06T12:48:34.609Z,2.20
2022-08-06T12:51:11.512Z,1.70
2022-08-06T12:53:47.269Z,2.60
2022-08-06T12:56:31.286Z,2.28
2022-08-06T12:59:05.204Z,2.55
2022-08-06T13:02:07.409Z,1.90
2022-08-06T13:04:30.372Z,2.47
2022-08-06T13:07:02.782Z,2.08
2022-08-06T13:09:35.990Z,1.90
2022-08-06T13:12:29.666Z,1.92
2022-08-06T13:15:17.514Z,3.10
2022-08-06T13:18:13.430Z,3.05
2022-08-06T13:20:54.513Z,3.25
2022-08-06T13:23:36.904Z,2.13
2022-08-06T13:26:26.157Z,3.53
2022-08-06T13:30:31.882Z,2.78
2022-08-06T13:32:11.256Z,2.50
2022-08-06T13:34:56.274Z,2.25
2022-08-06T13:37:56.635Z,1.98
2022-08-06T13:40:46.562Z,3.53
2022-08-06T13:43:39.179Z,2.03
2022-08-06T13:46:16.913Z,4.35
2022-08-06T13:48:49.473Z,2.28
2022-08-06T13:51:22.217Z,2.67
2022-08-06T13:53:57.583Z,1.90
2022-08-06T13:56:29.133Z,2.05
2022-08-06T13:58:58.338Z,1.90
2022-08-06T14:01:34.852Z,1.77
2022-08-06T14:04:18.057Z,3.30
2022-08-06T14:06:48.213Z,1.67
2022-08-06T14:09:20.687Z,1.80
2022-08-06T14:11:57.800Z,2.75
2022-08-06T14:14:29.077Z,1.80
2022-08-06T14:16:59.221Z,3.05
2022-08-06T14:20:14.490Z,1.95
2022-08-06T14:22:18.685Z,3.47
2022-08-06T14:24:54.588Z,2.42
2022-08-06T14:27:24.629Z,1.70
2022-08-06T14:30:28.601Z,2.10
2022-08-06T14:32:45.779Z,2.33
2022-08-06T14:35:18.680Z,4.07
2022-08-06T14:37:51.386Z,3.53
2022-08-06T14:40:59.438Z,2.20
2022-08-06T14:43:59.938Z,5.38
2022-08-06T14:46:30.546Z,3.63
2022-08-06T14:49:05.694Z,3.58
2022-08-06T14:52:19.339Z,3.63
2022-08-06T14:54:32.012Z,5.07
2022-08-06T14:57:02.229Z,5.38
2022-08-06T14:59:32.302Z,2.22
2022-08-06T15:02:11.495Z,3.00
2022-08-06T15:04:40.045Z,4.20
2022-08-06T15:07:24.490Z,2.38
2022-08-06T15:10:05.142Z,4.25
2022-08-06T15:12:49.677Z,2.70
2022-08-06T15:15:26.879Z,2.45
2022-08-06T15:18:40.182Z,2.85
2022-08-06T15:20:57.653Z,2.78
2022-08-06T15:23:30.750Z,3.15
2022-08-06T15:26:42.254Z,3.35
2022-08-06T15:28:49.379Z,2.75
2022-08-06T15:31:18.863Z,2.80
2022-08-06T15:33:49.386Z,3.67
2022-08-06T15:36:17.778Z,2.83
2022-08-06T15:38:49.188Z,2.22
2022-08-06T15:41:18.465Z,2.30
2022-08-06T15:43:51.258Z,2.15
2022-08-06T15:46:28.432Z,2.20
2022-08-06T15:48:59.578Z,2.33
2022-08-06T15:51:31.450Z,3.45
2022-08-06T15:54:01.945Z,2.25
2022-08-06T15:56:39.419Z,2.10
2022-08-06T15:59:21.145Z,2.22
2022-08-06T16:02:01.851Z,2.30
2022-08-06T16:04:36.572Z,3.80
2022-08-06T16:07:06.687Z,2.25
2022-08-06T16:10:00.814Z,2.10
2022-08-06T16:12:25.937Z,2.42
2022-08-06T16:14:57.676Z,2.25
2022-08-06T16:17:53.453Z,2.20
2022-08-06T16:20:20.766Z,2.33
2022-08-06T16:22:52.567Z,2.13
2022-08-06T16:25:23.868Z,2.13
2022-08-06T16:28:14.597Z,4.00
2022-08-06T16:31:05.479Z,1.92
2022-08-06T16:33:53.947Z,2.15
2022-08-06T16:36:32.806Z,3.83
2022-08-06T16:39:01.958Z,2.33
2022-08-06T16:41:58.553Z,2.15
2022-08-06T16:44:34.883Z,2.47
2022-08-06T16:47:06.269Z,2.90
2022-08-06T16:50:17.455Z,2.20
2022-08-06T16:52:44.557Z,2.50
2022-08-06T16:55:12.722Z,2.88
2022-08-06T16:57:45.030Z,2.30
2022-08-06T17:01:00.708Z,3.72
2022-08-06T17:03:14.399Z,2.00
2022-08-06T17:05:46.073Z,2.08
2022-08-06T17:08:16.981Z,1.90
2022-08-06T17:10:58.160Z,3.40
2022-08-06T17:13:38.554Z,2.22
2022-08-06T17:16:12.621Z,5.03
2022-08-06T17:21:53.025Z,2.58
2022-08-06T17:24:18.040Z,4.65
2022-08-06T17:27:09.298Z,4.38
2022-08-06T17:32:32.590Z,5.22
2022-08-06T17:35:06.683Z,8.18
2022-08-06T17:37:43.400Z,3.58
2022-08-06T17:40:19.096Z,2.47
2022-08-06T17:43:00.362Z,3.83
2022-08-06T17:45:35.016Z,3.28
2022-08-06T17:48:04.390Z,3.67
2022-08-06T17:50:40.864Z,3.80
2022-08-06T17:53:19.927Z,2.30
2022-08-06T17:55:59.519Z,5.30
2022-08-06T17:58:37.626Z,3.35
2022-08-06T18:01:16.978Z,2.42
2022-08-06T18:04:00.800Z,2.47
2022-08-06T18:06:29.685Z,4.43
2022-08-06T18:08:59.203Z,4.30
2022-08-06T18:11:46.879Z,7.22
2022-08-06T18:14:31.950Z,3.05
2022-08-06T18:17:03.212Z,4.97
2022-08-06T18:19:36.625Z,5.15
2022-08-06T18:22:21.410Z,4.00
2022-08-06T18:24:52.925Z,5.25
2022-08-06T18:27:53.790Z,3.20
2022-08-06T18:30:36.628Z,3.38
2022-08-06T18:33:08.069Z,5.13
2022-08-06T18:35:55.758Z,4.90
2022-08-06T18:38:25.530Z,4.75
2022-08-06T18:41:14.258Z,3.90
2022-08-06T18:43:54.146Z,4.72
2022-08-06T18:46:55.912Z,4.88
2022-08-06T18:49:15.524Z,2.50
2022-08-06T18:51:47.150Z,3.92
2022-08-06T18:54:21.291Z,12.07
2022-08-06T18:56:52.198Z,5.28
2022-08-06T18:59:27.462Z,5.90
2022-08-06T19:01:58.210Z,3.95
2022-08-06T19:04:30.176Z,4.78
2022-08-06T19:07:00.647Z,3.15
2022-08-06T19:09:34.013Z,7.35
2022-08-06T19:12:13.018Z,5.85
2022-08-06T19:14:44.088Z,6.85
2022-08-06T19:17:13.387Z,9.55
2022-08-06T19:20:18.048Z,6.70
2022-08-06T19:22:33.569Z,6.22
2022-08-06T19:25:09.573Z,5.53
2022-08-06T19:28:30.855Z,5.40
2022-08-06T19:30:27.911Z,8.48
2022-08-06T19:33:16.078Z,2.63
2022-08-06T19:36:07.115Z,3.38
2022-08-06T19:38:35.241Z,3.75
2022-08-06T19:41:03.905Z,2.60
2022-08-06T19:44:25.486Z,2.72
2022-08-06T19:46:31.889Z,3.63
2022-08-06T19:49:04.379Z,4.70
2022-08-06T19:52:02.789Z,2.28
2022-08-06T19:54:26.403Z,4.25
2022-08-06T19:57:08.352Z,3.22
2022-08-06T20:00:50.323Z,2.17
2022-08-06T20:02:28.963Z,4.47
2022-08-06T20:04:58.380Z,3.33
2022-08-06T20:07:28.760Z,2.40
2022-08-06T20:10:01.957Z,4.03
2022-08-06T20:12:34.440Z,3.92
2022-08-06T20:15:04.978Z,5.00
2022-08-06T20:17:48.563Z,3.58
2022-08-06T20:20:28.880Z,3.97
2022-08-06T20:23:08.396Z,3.00
2022-08-06T20:26:08.595Z,4.38
2022-08-06T20:29:08.553Z,3.92
2022-08-06T20:31:19.822Z,2.80
2022-08-06T20:33:57.851Z,3.13
2022-08-06T20:36:29.437Z,4.78
2022-08-06T20:39:00.485Z,4.55
2022-08-06T20:42:03.160Z,3.33
2022-08-06T20:44:20.022Z,3.28
2022-08-06T20:47:44.154Z,3.30
2022-08-06T20:50:02.995Z,4.60
2022-08-06T20:52:28.722Z,3.72
2022-08-06T20:54:59.802Z,2.92
2022-08-06T20:57:37.275Z,3.15
2022-08-06T21:00:17.783Z,4.60
2022-08-06T21:03:03.379Z,2.90
2022-08-06T21:05:50.368Z,4.25
2022-08-06T21:08:20.003Z,4.57
2022-08-06T21:10:58.359Z,4.70
2022-08-06T21:13:35.885Z,2.97
2022-08-06T21:16:29.035Z,4.80
2022-08-06T21:19:01.184Z,3.10
2022-08-06T21:21:31.640Z,7.03
2022-08-06T21:24:01.117Z,4.22
2022-08-06T21:26:35.246Z,4.53
2022-08-06T21:29:41.920Z,3.22
2022-08-06T21:31:57.703Z,6.93
2022-08-06T21:34:27.640Z,3.85
2022-08-06T21:36:56.646Z,3.45
2022-08-06T21:39:52.202Z,5.60
2022-08-06T21:42:16.012Z,5.38
2022-08-06T21:44:45.529Z,4.47
2022-08-06T21:47:19.793Z,5.25
2022-08-06T21:50:19.057Z,6.03
2022-08-06T21:52:37.699Z,4.07
2022-08-06T21:56:35.085Z,3.80
2022-08-06T21:58:02.693Z,5.85
2022-08-06T22:00:46.459Z,5.15
2022-08-06T22:04:38.327Z,4.20
2022-08-06T22:06:21.380Z,3.45
2022-08-06T22:08:55.581Z,5.80
2022-08-06T22:12:36.571Z,4.03
2022-08-06T22:14:28.790Z,3.72
2022-08-06T22:17:04.751Z,4.45
2022-08-06T22:19:38.293Z,2.80
2022-08-06T22:22:08.239Z,2.70
2022-08-06T22:24:37.527Z,3.95
2022-08-06T22:27:12.736Z,3.10
2022-08-06T22:30:04.290Z,3.42
2022-08-06T22:32:36.222Z,3.17
2022-08-06T22:35:09.720Z,6.60
2022-08-06T22:38:16.515Z,3.00
2022-08-06T22:40:29.991Z,3.08
2022-08-06T22:43:01.559Z,2.70
2022-08-06T22:46:00.205Z,3.08
2022-08-06T22:48:36.349Z,2.65
2022-08-06T22:51:06.134Z,2.58
2022-08-06T22:54:28.728Z,5.97
2022-08-06T22:56:28.831Z,2.70
2022-08-06T22:59:06.282Z,2.70
2022-08-06T23:02:06.579Z,2.90
2022-08-06T23:04:36.896Z,4.57
2022-08-06T23:07:09.308Z,3.72
2022-08-06T23:09:39.735Z,3.90
2022-08-06T23:12:11.326Z,4.70
2022-08-06T23:14:41.687Z,4.55
2022-08-06T23:17:12.556Z,3.38
2022-08-06T23:19:56.404Z,6.80
2022-08-06T23:22:28.882Z,2.65
2022-08-06T23:26:01.065Z,2.60
2022-08-06T23:27:51.651Z,2.72
2022-08-06T23:30:21.264Z,2.70
2022-08-06T23:32:51.345Z,3.20
2022-08-06T23:35:37.081Z,2.65
2022-08-06T23:38:31.969Z,3.15
2022-08-06T23:40:55.172Z,3.78
2022-08-06T23:43:24.130Z,2.40
2022-08-06T23:45:52.997Z,2.50
2022-08-06T23:48:22.994Z,3.17
2022-08-06T23:50:54.405Z,3.72
2022-08-06T23:54:06.052Z,2.40
2022-08-06T23:56:13.705Z,3.67
2022-08-06T23:58:48.771Z,3.03
